»·PEaware :: SWA1585 KLAS-KLAX

SWA1585 :: KLAS-KLAX

FLIGHT INFORMATION

Flight Status: Arrived
Operator:
Southwest Airlines
More flights by this operator :: More flights under this callsign
Pilot: Anonymous 17611 (17611)
Aircraft: BOEING 737-800
(B738)
More flights by this aircraft type
Origin: KLAS McCarran Intl
United States
Destination: KLAX Los Angeles Intl
United States
More flights between these airports :: More routes between these airports
Route: BOACH8 RIKII SHTNR ANJLL4
File this flight plan on PilotEdge
Remarks:
Altitude:
(Current/Filed)
26,000ft
Speed:
(Current/Filed)
443kts
Departed: 19-Mar-20 05:59 PM
Arrived: 19-Mar-20 06:42 PM
Distance/Time
Traveled:
205nm/0:43
Distance/Time
To Go:
Arrived

Flight Plot

Page will automatically refresh every two minutes.

Flight plan parsing failed; only flown route is shown


Map Options




Map Legend


Flown Route
Filed Route
Departure Airport
Arrival Airport
Navaid (VOR, NDB)
Fix

Horizontal Profiles

Position Reports

Time Latitude Longitude Heading Altitude Ground
Speed
19-Mar-20 17:37 36.080974 -115.147751 57 2102ft 0kts
19-Mar-20 17:39 36.080974 -115.147751 57 2102ft 0kts
19-Mar-20 17:39 36.080974 -115.147751 57 2102ft 0kts
19-Mar-20 17:40 36.080974 -115.147751 57 2102ft 0kts
19-Mar-20 17:41 36.080974 -115.147751 57 2102ft 0kts
19-Mar-20 17:42 36.080974 -115.147751 57 2102ft 0kts
19-Mar-20 17:43 36.080974 -115.147751 57 2102ft 0kts
19-Mar-20 17:44 36.080974 -115.147751 57 2102ft 0kts
19-Mar-20 17:45 36.080974 -115.147752 57 2102ft 0kts
19-Mar-20 17:46 36.080765 -115.148157 57 2102ft 2kts
19-Mar-20 17:47 36.080682 -115.148840 111 2102ft 2kts
19-Mar-20 17:48 36.081006 -115.149259 154 2102ft 0kts
19-Mar-20 17:49 36.081006 -115.149259 154 2102ft 0kts
19-Mar-20 17:50 36.080005 -115.148667 155 2102ft 10kts
19-Mar-20 17:51 36.079541 -115.148417 156 2102ft 0kts
19-Mar-20 17:52 36.078491 -115.146920 95 2102ft 12kts
19-Mar-20 17:53 36.078267 -115.140467 89 2102ft 23kts
19-Mar-20 17:54 36.078271 -115.132784 89 2102ft 20kts
19-Mar-20 17:55 36.078271 -115.126556 92 2102ft 14kts
19-Mar-20 17:56 36.077558 -115.121525 144 2102ft 0kts
19-Mar-20 17:57 36.076441 -115.121704 259 2102ft 13kts
19-Mar-20 17:58 36.076514 -115.161941 265 3013ft 201kts
19-Mar-20 17:59 36.064371 -115.236099 236 6189ft 256kts
19-Mar-20 18:00 36.005043 -115.286246 201 7007ft 264kts
19-Mar-20 18:01 35.932288 -115.306377 186 9814ft 276kts
19-Mar-20 18:02 35.847955 -115.313921 178 12236ft 333kts
19-Mar-20 18:03 35.754340 -115.303364 177 15561ft 350kts
19-Mar-20 18:04 35.654847 -115.295384 184 18678ft 364kts
19-Mar-20 18:05 35.552022 -115.299726 185 19484ft 373kts
19-Mar-20 18:06 35.454321 -115.339548 210 22275ft 377kts
19-Mar-20 18:07 35.362396 -115.405901 212 23087ft 380kts
19-Mar-20 18:08 35.270634 -115.472486 212 23088ft 382kts
19-Mar-20 18:09 35.177981 -115.539526 213 24935ft 392kts
19-Mar-20 18:10 35.090917 -115.620758 227 26104ft 399kts
19-Mar-20 18:11 35.014592 -115.718718 227 26130ft 411kts
19-Mar-20 18:12 34.936686 -115.818038 228 26123ft 406kts
19-Mar-20 18:13 34.860755 -115.914594 229 26138ft 405kts
19-Mar-20 18:14 34.782355 -116.013991 229 26137ft 405kts
19-Mar-20 18:15 34.704394 -116.113050 229 26136ft 406kts
19-Mar-20 18:16 34.626575 -116.212034 229 26130ft 406kts
19-Mar-20 18:17 34.548407 -116.311169 229 26133ft 406kts
19-Mar-20 18:18 34.470393 -116.409823 229 26132ft 405kts
19-Mar-20 18:19 34.401777 -116.514282 244 26099ft 379kts
19-Mar-20 18:20 34.354446 -116.628823 245 26073ft 373kts
19-Mar-20 18:21 34.309705 -116.738644 245 25485ft 382kts
19-Mar-20 18:22 34.266315 -116.846518 245 23572ft 349kts
19-Mar-20 18:23 34.223130 -116.953528 245 21631ft 348kts
19-Mar-20 18:24 34.189638 -117.062264 252 19685ft 350kts
19-Mar-20 18:25 34.160689 -117.169492 251 17731ft 346kts
19-Mar-20 18:26 34.131741 -117.274617 251 15727ft 324kts
19-Mar-20 18:27 34.103252 -117.378086 251 14013ft 332kts
19-Mar-20 18:28 34.077352 -117.482083 252 12068ft 312kts
19-Mar-20 18:29 34.053229 -117.576828 252 11509ft 296kts
19-Mar-20 18:30 34.030376 -117.668057 256 10394ft 269kts
19-Mar-20 18:31 34.017920 -117.751235 260 9987ft 266kts
19-Mar-20 18:32 34.008194 -117.839350 262 9608ft 268kts
19-Mar-20 18:33 33.999780 -117.925171 261 8284ft 272kts
19-Mar-20 18:34 33.991125 -118.013231 261 6794ft 244kts
19-Mar-20 18:35 33.983341 -118.091799 261 5361ft 236kts
19-Mar-20 18:36 33.975765 -118.168003 260 4022ft 215kts
19-Mar-20 18:37 33.969689 -118.228894 260 3008ft 171kts
19-Mar-20 18:38 33.964210 -118.283152 261 2090ft 155kts
19-Mar-20 18:39 33.959266 -118.331962 261 1289ft 144kts
19-Mar-20 18:40 33.954603 -118.378129 261 476ft 128kts
19-Mar-20 18:41 33.950991 -118.410781 217 113ft 15kts
19-Mar-20 18:42 33.949656 -118.410876 174 113ft 11kts

Navigation Log

Ident Type
Flight plan parsing failed, navigation log unavailable